sensor_id;sensor_type;location;lat;lon;timestamp;pressure;altitude;pressure_sealevel;temperature;humidity
61324;BME280;47203;48.428;11.974;2023-01-28T00:00:13;97157.78;;;6.62;46.50
61324;BME280;47203;48.428;11.974;2023-01-28T00:02:18;97149.38;;;6.60;46.44
61324;BME280;47203;48.428;11.974;2023-01-28T00:04:23;97156.41;;;6.60;46.65
61324;BME280;47203;48.428;11.974;2023-01-28T00:06:28;97161.06;;;6.58;46.66
61324;BME280;47203;48.428;11.974;2023-01-28T00:08:34;97153.91;;;6.53;46.67
61324;BME280;47203;48.428;11.974;2023-01-28T00:10:39;97167.56;;;6.55;46.79
61324;BME280;47203;48.428;11.974;2023-01-28T00:12:44;97157.09;;;6.55;46.85
61324;BME280;47203;48.428;11.974;2023-01-28T00:14:49;97160.75;;;6.54;46.78
61324;BME280;47203;48.428;11.974;2023-01-28T00:16:57;97160.38;;;6.51;46.58
61324;BME280;47203;48.428;11.974;2023-01-28T00:19:02;97163.59;;;6.53;46.75
61324;BME280;47203;48.428;11.974;2023-01-28T00:21:10;97163.00;;;6.51;46.76
61324;BME280;47203;48.428;11.974;2023-01-28T00:23:15;97159.84;;;6.49;46.66
61324;BME280;47203;48.428;11.974;2023-01-28T00:25:20;97152.00;;;6.49;46.81
61324;BME280;47203;48.428;11.974;2023-01-28T00:27:25;97157.22;;;6.49;46.89
61324;BME280;47203;48.428;11.974;2023-01-28T00:29:32;97156.63;;;6.46;46.83
61324;BME280;47203;48.428;11.974;2023-01-28T00:31:37;97153.47;;;6.44;46.97
61324;BME280;47203;48.428;11.974;2023-01-28T00:33:46;97162.09;;;6.45;46.77
61324;BME280;47203;48.428;11.974;2023-01-28T00:35:58;97155.72;;;6.41;47.04
61324;BME280;47203;48.428;11.974;2023-01-28T00:38:03;97153.56;;;6.38;47.00
61324;BME280;47203;48.428;11.974;2023-01-28T00:40:10;97157.78;;;6.39;47.07
61324;BME280;47203;48.428;11.974;2023-01-28T00:42:15;97149.38;;;6.37;47.01
61324;BME280;47203;48.428;11.974;2023-01-28T00:44:21;97155.94;;;6.39;47.04
61324;BME280;47203;48.428;11.974;2023-01-28T00:46:26;97147.19;;;6.34;46.97
61324;BME280;47203;48.428;11.974;2023-01-28T00:48:31;97150.38;;;6.36;47.07
61324;BME280;47203;48.428;11.974;2023-01-28T00:50:39;97147.19;;;6.34;46.94
61324;BME280;47203;48.428;11.974;2023-01-28T00:52:44;97142.53;;;6.36;47.08
61324;BME280;47203;48.428;11.974;2023-01-28T00:54:49;97150.72;;;6.39;47.01
61324;BME280;47203;48.428;11.974;2023-01-28T00:56:54;97147.75;;;6.36;47.11
61324;BME280;47203;48.428;11.974;2023-01-28T00:58:59;97153.56;;;6.38;46.84
61324;BME280;47203;48.428;11.974;2023-01-28T01:01:08;97153.09;;;6.41;46.78
61324;BME280;47203;48.428;11.974;2023-01-28T01:03:13;97151.75;;;6.38;46.86
61324;BME280;47203;48.428;11.974;2023-01-28T01:05:19;97155.94;;;6.39;46.88
61324;BME280;47203;48.428;11.974;2023-01-28T01:07:28;97159.59;;;6.38;47.13
61324;BME280;47203;48.428;11.974;2023-01-28T01:09:43;97153.78;;;6.36;46.92
61324;BME280;47203;48.428;11.974;2023-01-28T01:11:48;97166.63;;;6.38;46.90
61324;BME280;47203;48.428;11.974;2023-01-28T01:13:53;97152.41;;;6.34;47.03
61324;BME280;47203;48.428;11.974;2023-01-28T01:16:03;97159.25;;;6.35;47.09
61324;BME280;47203;48.428;11.974;2023-01-28T01:18:08;97161.53;;;6.31;46.87
61324;BME280;47203;48.428;11.974;2023-01-28T01:20:15;97163.91;;;6.33;47.02
61324;BME280;47203;48.428;11.974;2023-01-28T01:22:20;97164.38;;;6.29;46.87
61324;BME280;47203;48.428;11.974;2023-01-28T01:24:28;97169.81;;;6.28;46.99
61324;BME280;47203;48.428;11.974;2023-01-28T01:26:34;97163.78;;;6.27;47.06
61324;BME280;47203;48.428;11.974;2023-01-28T01:28:40;97160.38;;;6.27;47.14
61324;BME280;47203;48.428;11.974;2023-01-28T01:30:47;97164.59;;;6.28;47.08
61324;BME280;47203;48.428;11.974;2023-01-28T01:32:52;97172.66;;;6.26;47.17
61324;BME280;47203;48.428;11.974;2023-01-28T01:34:57;97167.44;;;6.26;46.94
61324;BME280;47203;48.428;11.974;2023-01-28T01:37:02;97172.06;;;6.24;46.99
61324;BME280;47203;48.428;11.974;2023-01-28T01:39:10;97170.25;;;6.25;47.11
61324;BME280;47203;48.428;11.974;2023-01-28T01:41:25;97168.91;;;6.22;47.14
61324;BME280;47203;48.428;11.974;2023-01-28T01:43:47;97172.84;;;6.25;46.86
61324;BME280;47203;48.428;11.974;2023-01-28T01:45:57;97178.09;;;6.25;47.04
61324;BME280;47203;48.428;11.974;2023-01-28T01:48:10;97176.84;;;6.27;46.92
61324;BME280;47203;48.428;11.974;2023-01-28T01:50:22;97180.28;;;6.28;47.01
61324;BME280;47203;48.428;11.974;2023-01-28T01:52:31;97179.69;;;6.26;47.15
61324;BME280;47203;48.428;11.974;2023-01-28T01:54:38;97183.69;;;6.28;47.03
61324;BME280;47203;48.428;11.974;2023-01-28T01:56:49;97179.47;;;6.27;47.00
61324;BME280;47203;48.428;11.974;2023-01-28T01:58:57;97190.72;;;6.28;46.94
61324;BME280;47203;48.428;11.974;2023-01-28T02:01:06;97188.13;;;6.28;46.81
61324;BME280;47203;48.428;11.974;2023-01-28T02:03:11;97188.13;;;6.28;46.89
61324;BME280;47203;48.428;11.974;2023-01-28T02:05:19;97191.75;;;6.27;46.92
61324;BME280;47203;48.428;11.974;2023-01-28T02:07:24;97184.13;;;6.25;47.11
61324;BME280;47203;48.428;11.974;2023-01-28T02:09:31;97186.97;;;6.24;46.85
61324;BME280;47203;48.428;11.974;2023-01-28T02:11:37;97188.75;;;6.23;47.09
61324;BME280;47203;48.428;11.974;2023-01-28T02:13:47;97190.81;;;6.21;46.87
61324;BME280;47203;48.428;11.974;2023-01-28T02:15:54;97196.59;;;6.23;47.05
61324;BME280;47203;48.428;11.974;2023-01-28T02:17:59;97194.22;;;6.22;46.98
61324;BME280;47203;48.428;11.974;2023-01-28T02:20:07;97202.66;;;6.24;46.89
61324;BME280;47203;48.428;11.974;2023-01-28T02:22:26;97193.88;;;6.18;47.09
61324;BME280;47203;48.428;11.974;2023-01-28T02:24:53;97199.13;;;6.18;47.16
61324;BME280;47203;48.428;11.974;2023-01-28T02:27:17;97203.75;;;6.16;47.16
61324;BME280;47203;48.428;11.974;2023-01-28T02:29:32;97200.13;;;6.17;47.05
61324;BME280;47203;48.428;11.974;2023-01-28T02:31:45;97196.94;;;6.15;47.22
61324;BME280;47203;48.428;11.974;2023-01-28T02:33:58;97206.16;;;6.18;46.99
61324;BME280;47203;48.428;11.974;2023-01-28T02:36:14;97204.56;;;6.17;47.08
61324;BME280;47203;48.428;11.974;2023-01-28T02:38:25;97207.03;;;6.11;47.04
61324;BME280;47203;48.428;11.974;2023-01-28T02:40:33;97212.84;;;6.14;47.00
61324;BME280;47203;48.428;11.974;2023-01-28T02:42:59;97213.06;;;6.12;47.25
61324;BME280;47203;48.428;11.974;2023-01-28T02:45:14;97203.84;;;6.09;47.08
61324;BME280;47203;48.428;11.974;2023-01-28T02:47:20;97201.25;;;6.09;47.20
61324;BME280;47203;48.428;11.974;2023-01-28T02:49:40;97207.47;;;6.08;47.21
61324;BME280;47203;48.428;11.974;2023-01-28T02:52:03;97204.88;;;6.08;47.35
61324;BME280;47203;48.428;11.974;2023-01-28T02:54:14;97207.47;;;6.08;47.03
61324;BME280;47203;48.428;11.974;2023-01-28T02:56:27;97204.88;;;6.08;46.91
61324;BME280;47203;48.428;11.974;2023-01-28T02:58:41;97205.09;;;6.07;47.14
61324;BME280;47203;48.428;11.974;2023-01-28T03:00:55;97201.69;;;6.06;47.07
61324;BME280;47203;48.428;11.974;2023-01-28T03:03:10;97209.31;;;6.08;47.28
61324;BME280;47203;48.428;11.974;2023-01-28T03:05:22;97207.94;;;6.05;47.35
61324;BME280;47203;48.428;11.974;2023-01-28T03:07:32;97208.72;;;6.06;46.90
61324;BME280;47203;48.428;11.974;2023-01-28T03:09:39;97206.09;;;6.06;47.31
61324;BME280;47203;48.428;11.974;2023-01-28T03:11:47;97212.16;;;6.06;47.05
61324;BME280;47203;48.428;11.974;2023-01-28T03:14:07;97214.16;;;6.04;46.92
61324;BME280;47203;48.428;11.974;2023-01-28T03:16:29;97218.28;;;6.00;47.20
61324;BME280;47203;48.428;11.974;2023-01-28T03:18:49;97216.88;;;5.98;47.29
61324;BME280;47203;48.428;11.974;2023-01-28T03:21:10;97219.50;;;5.98;47.17
61324;BME280;47203;48.428;11.974;2023-01-28T03:23:33;97222.53;;;5.94;47.25
61324;BME280;47203;48.428;11.974;2023-01-28T03:25:57;97212.31;;;5.93;47.17
61324;BME280;47203;48.428;11.974;2023-01-28T03:28:17;97217.31;;;5.94;47.19
61324;BME280;47203;48.428;11.974;2023-01-28T03:30:42;97216.72;;;5.92;47.43
61324;BME280;47203;48.428;11.974;2023-01-28T03:33:14;97217.75;;;5.91;47.20
61324;BME280;47203;48.428;11.974;2023-01-28T03:35:34;97218.09;;;5.95;47.18
61324;BME280;47203;48.428;11.974;2023-01-28T03:37:52;97220.72;;;5.95;47.16
61324;BME280;47203;48.428;11.974;2023-01-28T03:40:04;97216.25;;;5.95;47.21
61324;BME280;47203;48.428;11.974;2023-01-28T03:42:12;97220.47;;;5.97;47.13
61324;BME280;47203;48.428;11.974;2023-01-28T03:44:34;97219.91;;;5.94;47.24
61324;BME280;47203;48.428;11.974;2023-01-28T03:46:58;97218.31;;;5.93;47.33
61324;BME280;47203;48.428;11.974;2023-01-28T03:49:06;97225.94;;;5.95;47.37
61324;BME280;47203;48.428;11.974;2023-01-28T03:51:11;97221.50;;;5.95;47.23
61324;BME280;47203;48.428;11.974;2023-01-28T03:53:18;97216.06;;;5.97;47.12
61324;BME280;47203;48.428;11.974;2023-01-28T03:55:25;97221.31;;;5.97;47.33
61324;BME280;47203;48.428;11.974;2023-01-28T03:57:29;97218.69;;;5.97;47.08
61324;BME280;47203;48.428;11.974;2023-01-28T03:59:35;97228.72;;;6.00;47.34
61324;BME280;47203;48.428;11.974;2023-01-28T04:01:40;97231.13;;;6.02;47.22
61324;BME280;47203;48.428;11.974;2023-01-28T04:03:46;97229.28;;;6.02;47.19
61324;BME280;47203;48.428;11.974;2023-01-28T04:06:02;97226.09;;;6.00;47.05
61324;BME280;47203;48.428;11.974;2023-01-28T04:08:27;97224.50;;;5.99;47.28
61324;BME280;47203;48.428;11.974;2023-01-28T04:10:55;97229.34;;;5.95;47.32
61324;BME280;47203;48.428;11.974;2023-01-28T04:13:03;97238.78;;;5.97;47.24
61324;BME280;47203;48.428;11.974;2023-01-28T04:15:09;97230.75;;;5.98;47.29
61324;BME280;47203;48.428;11.974;2023-01-28T04:17:20;97231.94;;;5.95;47.48
61324;BME280;47203;48.428;11.974;2023-01-28T04:19:26;97237.56;;;5.99;47.51
61324;BME280;47203;48.428;11.974;2023-01-28T04:21:36;97239.19;;;6.00;47.50
61324;BME280;47203;48.428;11.974;2023-01-28T04:23:41;97236.97;;;5.97;47.27
61324;BME280;47203;48.428;11.974;2023-01-28T04:25:49;97242.78;;;5.99;47.54
61324;BME280;47203;48.428;11.974;2023-01-28T04:27:56;97238.13;;;6.01;47.32
61324;BME280;47203;48.428;11.974;2023-01-28T04:30:04;97239.97;;;6.01;47.28
61324;BME280;47203;48.428;11.974;2023-01-28T04:32:21;97244.41;;;6.00;47.49
61324;BME280;47203;48.428;11.974;2023-01-28T04:35:02;97244.41;;;6.00;47.35
61324;BME280;47203;48.428;11.974;2023-01-28T04:37:24;97244.63;;;5.99;47.47
61324;BME280;47203;48.428;11.974;2023-01-28T04:40:05;97244.81;;;5.97;47.14
61324;BME280;47203;48.428;11.974;2023-01-28T04:42:30;97250.03;;;5.97;47.59
61324;BME280;47203;48.428;11.974;2023-01-28T04:44:41;97250.84;;;5.98;47.58
61324;BME280;47203;48.428;11.974;2023-01-28T04:46:52;97256.28;;;5.96;47.44
61324;BME280;47203;48.428;11.974;2023-01-28T04:49:22;97261.50;;;5.96;47.40
61324;BME280;47203;48.428;11.974;2023-01-28T04:51:55;97259.69;;;5.97;47.62
61324;BME280;47203;48.428;11.974;2023-01-28T04:54:08;97258.06;;;5.95;47.57
61324;BME280;47203;48.428;11.974;2023-01-28T04:56:14;97263.69;;;5.99;47.54
61324;BME280;47203;48.428;11.974;2023-01-28T04:58:19;97266.53;;;5.98;47.43
61324;BME280;47203;48.428;11.974;2023-01-28T05:00:27;97266.31;;;5.99;47.62
61324;BME280;47203;48.428;11.974;2023-01-28T05:02:32;97262.91;;;5.99;47.48
61324;BME280;47203;48.428;11.974;2023-01-28T05:04:37;97265.09;;;6.02;47.45
61324;BME280;47203;48.428;11.974;2023-01-28T05:06:44;97263.47;;;6.01;47.43
61324;BME280;47203;48.428;11.974;2023-01-28T05:08:57;97272.91;;;6.02;47.59
61324;BME280;47203;48.428;11.974;2023-01-28T05:11:06;97271.88;;;6.03;47.67
61324;BME280;47203;48.428;11.974;2023-01-28T05:13:11;97280.53;;;6.03;47.60
61324;BME280;47203;48.428;11.974;2023-01-28T05:15:18;97271.88;;;6.03;47.52
61324;BME280;47203;48.428;11.974;2023-01-28T05:17:26;97281.09;;;6.05;47.46
61324;BME280;47203;48.428;11.974;2023-01-28T05:19:31;97274.88;;;6.06;47.53
61324;BME280;47203;48.428;11.974;2023-01-28T05:21:38;97276.66;;;6.06;47.61
61324;BME280;47203;48.428;11.974;2023-01-28T05:23:55;97275.09;;;6.05;47.69
61324;BME280;47203;48.428;11.974;2023-01-28T05:26:00;97280.88;;;6.07;47.62
61324;BME280;47203;48.428;11.974;2023-01-28T05:28:09;97274.28;;;6.04;47.56
61324;BME280;47203;48.428;11.974;2023-01-28T05:30:14;97282.72;;;6.06;47.48
61324;BME280;47203;48.428;11.974;2023-01-28T05:32:19;97280.09;;;6.06;47.49
61324;BME280;47203;48.428;11.974;2023-01-28T05:34:25;97286.91;;;6.07;47.64
61324;BME280;47203;48.428;11.974;2023-01-28T05:36:31;97290.88;;;6.10;47.44
61324;BME280;47203;48.428;11.974;2023-01-28T05:38:46;97284.88;;;6.09;47.53
61324;BME280;47203;48.428;11.974;2023-01-28T05:40:51;97286.69;;;6.09;47.46
61324;BME280;47203;48.428;11.974;2023-01-28T05:42:56;97299.78;;;6.09;47.72
61324;BME280;47203;48.428;11.974;2023-01-28T05:45:14;97302.38;;;6.09;47.52
61324;BME280;47203;48.428;11.974;2023-01-28T05:47:35;97297.94;;;6.09;47.59
61324;BME280;47203;48.428;11.974;2023-01-28T05:49:58;97301.56;;;6.08;47.58
61324;BME280;47203;48.428;11.974;2023-01-28T05:52:11;97294.53;;;6.09;47.68
61324;BME280;47203;48.428;11.974;2023-01-28T05:54:16;97296.94;;;6.10;47.49
61324;BME280;47203;48.428;11.974;2023-01-28T05:56:22;97296.72;;;6.12;47.44
61324;BME280;47203;48.428;11.974;2023-01-28T05:58:27;97294.09;;;6.12;47.80
61324;BME280;47203;48.428;11.974;2023-01-28T06:00:39;97294.09;;;6.12;47.50
61324;BME280;47203;48.428;11.974;2023-01-28T06:02:44;97297.50;;;6.13;47.67
61324;BME280;47203;48.428;11.974;2023-01-28T06:04:49;97298.50;;;6.11;47.90
61324;BME280;47203;48.428;11.974;2023-01-28T06:06:54;97294.66;;;6.14;47.77
61324;BME280;47203;48.428;11.974;2023-01-28T06:09:00;97300.34;;;6.11;47.80
61324;BME280;47203;48.428;11.974;2023-01-28T06:11:05;97300.91;;;6.13;47.55
61324;BME280;47203;48.428;11.974;2023-01-28T06:13:11;97297.50;;;6.13;47.58
61324;BME280;47203;48.428;11.974;2023-01-28T06:15:34;97302.72;;;6.13;47.68
61324;BME280;47203;48.428;11.974;2023-01-28T06:18:11;97301.34;;;6.10;47.75
61324;BME280;47203;48.428;11.974;2023-01-28T06:20:17;97306.13;;;6.13;47.65
61324;BME280;47203;48.428;11.974;2023-01-28T06:22:24;97298.06;;;6.15;47.64
61324;BME280;47203;48.428;11.974;2023-01-28T06:24:29;97303.06;;;6.16;47.60
61324;BME280;47203;48.428;11.974;2023-01-28T06:26:34;97310.13;;;6.16;47.57
61324;BME280;47203;48.428;11.974;2023-01-28T06:28:40;97313.53;;;6.16;47.52
61324;BME280;47203;48.428;11.974;2023-01-28T06:30:47;97314.34;;;6.17;47.57
61324;BME280;47203;48.428;11.974;2023-01-28T06:32:53;97311.94;;;6.15;47.66
61324;BME280;47203;48.428;11.974;2023-01-28T06:35:02;97318.97;;;6.15;47.61
61324;BME280;47203;48.428;11.974;2023-01-28T06:37:07;97319.34;;;6.18;47.65
61324;BME280;47203;48.428;11.974;2023-01-28T06:39:12;97327.97;;;6.19;47.71
61324;BME280;47203;48.428;11.974;2023-01-28T06:41:17;97329.81;;;6.18;47.69
61324;BME280;47203;48.428;11.974;2023-01-28T06:43:22;97334.03;;;6.19;47.62
61324;BME280;47203;48.428;11.974;2023-01-28T06:45:28;97337.19;;;6.21;47.78
61324;BME280;47203;48.428;11.974;2023-01-28T06:47:33;97337.19;;;6.21;47.91
61324;BME280;47203;48.428;11.974;2023-01-28T06:49:38;97340.38;;;6.23;47.58
61324;BME280;47203;48.428;11.974;2023-01-28T06:51:46;97339.81;;;6.21;47.59
61324;BME280;47203;48.428;11.974;2023-01-28T06:53:51;97341.63;;;6.21;47.55
61324;BME280;47203;48.428;11.974;2023-01-28T06:55:56;97338.66;;;6.17;47.47
61324;BME280;47203;48.428;11.974;2023-01-28T06:58:01;97341.41;;;6.22;47.64
61324;BME280;47203;48.428;11.974;2023-01-28T07:00:08;97344.81;;;6.23;47.62
61324;BME280;47203;48.428;11.974;2023-01-28T07:02:14;97342.44;;;6.21;47.68
61324;BME280;47203;48.428;11.974;2023-01-28T07:04:19;97356.66;;;6.25;47.72
61324;BME280;47203;48.428;11.974;2023-01-28T07:06:24;97362.91;;;6.24;47.67
61324;BME280;47203;48.428;11.974;2023-01-28T07:08:32;97363.91;;;6.23;47.84
61324;BME280;47203;48.428;11.974;2023-01-28T07:10:38;97369.13;;;6.23;47.76
61324;BME280;47203;48.428;11.974;2023-01-28T07:12:43;97366.53;;;6.23;47.82
61324;BME280;47203;48.428;11.974;2023-01-28T07:14:48;97362.34;;;6.22;47.69
61324;BME280;47203;48.428;11.974;2023-01-28T07:16:53;97377.19;;;6.22;47.58
61324;BME280;47203;48.428;11.974;2023-01-28T07:18:58;97383.03;;;6.24;47.95
61324;BME280;47203;48.428;11.974;2023-01-28T07:21:03;97378.47;;;6.19;47.70
61324;BME280;47203;48.428;11.974;2023-01-28T07:23:08;97380.84;;;6.21;47.82
61324;BME280;47203;48.428;11.974;2023-01-28T07:25:16;97379.81;;;6.22;47.75
61324;BME280;47203;48.428;11.974;2023-01-28T07:27:21;97378.03;;;6.22;47.97
61324;BME280;47203;48.428;11.974;2023-01-28T07:29:26;97379.81;;;6.22;47.92
61324;BME280;47203;48.428;11.974;2023-01-28T07:31:30;97383.81;;;6.24;47.81
61324;BME280;47203;48.428;11.974;2023-01-28T07:33:36;97381.78;;;6.26;47.96
61324;BME280;47203;48.428;11.974;2023-01-28T07:35:41;97389.81;;;6.25;47.93
61324;BME280;47203;48.428;11.974;2023-01-28T07:37:50;97382.44;;;6.22;47.97
61324;BME280;47203;48.428;11.974;2023-01-28T07:39:55;97385.63;;;6.24;48.06
61324;BME280;47203;48.428;11.974;2023-01-28T07:42:02;97390.88;;;6.24;47.86
61324;BME280;47203;48.428;11.974;2023-01-28T07:44:12;97391.66;;;6.24;47.75
61324;BME280;47203;48.428;11.974;2023-01-28T07:46:17;97391.09;;;6.22;47.97
61324;BME280;47203;48.428;11.974;2023-01-28T07:48:22;97390.88;;;6.24;48.00
61324;BME280;47203;48.428;11.974;2023-01-28T07:50:28;97390.66;;;6.25;47.82
61324;BME280;47203;48.428;11.974;2023-01-28T07:52:36;97395.06;;;6.25;48.01
61324;BME280;47203;48.428;11.974;2023-01-28T07:54:45;97389.25;;;6.23;48.07
61324;BME280;47203;48.428;11.974;2023-01-28T07:56:50;97389.81;;;6.25;47.88
61324;BME280;47203;48.428;11.974;2023-01-28T07:58:57;97400.28;;;6.25;48.14
61324;BME280;47203;48.428;11.974;2023-01-28T08:01:02;97390.44;;;6.27;47.97
61324;BME280;47203;48.428;11.974;2023-01-28T08:03:12;97398.28;;;6.27;47.93
61324;BME280;47203;48.428;11.974;2023-01-28T08:05:19;97400.66;;;6.28;47.92
61324;BME280;47203;48.428;11.974;2023-01-28T08:07:24;97411.69;;;6.31;48.14
61324;BME280;47203;48.428;11.974;2023-01-28T08:09:29;97402.28;;;6.29;48.33
61324;BME280;47203;48.428;11.974;2023-01-28T08:11:37;97417.28;;;6.34;48.02
61324;BME280;47203;48.428;11.974;2023-01-28T08:13:42;97421.94;;;6.32;48.05
61324;BME280;47203;48.428;11.974;2023-01-28T08:15:54;97420.91;;;6.33;47.95
61324;BME280;47203;48.428;11.974;2023-01-28T08:18:00;97427.75;;;6.34;47.94
61324;BME280;47203;48.428;11.974;2023-01-28T08:20:06;97422.75;;;6.33;48.11
61324;BME280;47203;48.428;11.974;2023-01-28T08:22:11;97417.28;;;6.34;48.12
61324;BME280;47203;48.428;11.974;2023-01-28T08:24:16;97424.69;;;6.37;48.24
61324;BME280;47203;48.428;11.974;2023-01-28T08:26:22;97420.84;;;6.40;48.19
61324;BME280;47203;48.428;11.974;2023-01-28T08:28:27;97421.63;;;6.40;48.10
61324;BME280;47203;48.428;11.974;2023-01-28T08:30:33;97419.81;;;6.41;48.12
61324;BME280;47203;48.428;11.974;2023-01-28T08:32:41;97428.25;;;6.43;48.07
61324;BME280;47203;48.428;11.974;2023-01-28T08:34:46;97428.59;;;6.46;48.05
61324;BME280;47203;48.428;11.974;2023-01-28T08:36:51;97417.56;;;6.44;48.21
61324;BME280;47203;48.428;11.974;2023-01-28T08:38:56;97423.38;;;6.46;48.16
61324;BME280;47203;48.428;11.974;2023-01-28T08:41:01;97424.19;;;6.47;48.16
61324;BME280;47203;48.428;11.974;2023-01-28T08:43:06;97423.16;;;6.48;48.32
61324;BME280;47203;48.428;11.974;2023-01-28T08:45:11;97420.31;;;6.50;48.26
61324;BME280;47203;48.428;11.974;2023-01-28T08:47:16;97420.31;;;6.50;48.33
61324;BME280;47203;48.428;11.974;2023-01-28T08:49:23;97433.38;;;6.50;48.06
61324;BME280;47203;48.428;11.974;2023-01-28T08:51:29;97421.13;;;6.50;48.30
61324;BME280;47203;48.428;11.974;2023-01-28T08:53:33;97438.41;;;6.51;48.04
61324;BME280;47203;48.428;11.974;2023-01-28T08:55:38;97432.53;;;6.56;48.32
61324;BME280;47203;48.428;11.974;2023-01-28T08:57:43;97440.16;;;6.57;48.26
61324;BME280;47203;48.428;11.974;2023-01-28T08:59:48;97438.69;;;6.61;48.09
61324;BME280;47203;48.428;11.974;2023-01-28T09:01:53;97445.50;;;6.62;48.22
61324;BME280;47203;48.428;11.974;2023-01-28T09:03:58;97439.03;;;6.65;48.27
61324;BME280;47203;48.428;11.974;2023-01-28T09:06:05;97443.50;;;6.64;48.22
61324;BME280;47203;48.428;11.974;2023-01-28T09:08:12;97439.84;;;6.66;48.42
61324;BME280;47203;48.428;11.974;2023-01-28T09:10:17;97444.84;;;6.67;48.36
61324;BME280;47203;48.428;11.974;2023-01-28T09:12:23;97452.28;;;6.70;48.03
61324;BME280;47203;48.428;11.974;2023-01-28T09:14:28;97452.06;;;6.72;48.31
61324;BME280;47203;48.428;11.974;2023-01-28T09:16:32;97452.63;;;6.74;48.17
61324;BME280;47203;48.428;11.974;2023-01-28T09:18:37;97439.31;;;6.75;48.20
61324;BME280;47203;48.428;11.974;2023-01-28T09:20:42;97440.69;;;6.78;47.94
61324;BME280;47203;48.428;11.974;2023-01-28T09:22:49;97436.84;;;6.80;48.21
61324;BME280;47203;48.428;11.974;2023-01-28T09:24:54;97440.03;;;6.82;47.99
61324;BME280;47203;48.428;11.974;2023-01-28T09:26:59;97442.41;;;6.84;48.16
61324;BME280;47203;48.428;11.974;2023-01-28T09:29:04;97454.50;;;6.85;47.97
61324;BME280;47203;48.428;11.974;2023-01-28T09:31:10;97451.06;;;6.85;48.19
61324;BME280;47203;48.428;11.974;2023-01-28T09:33:16;97450.84;;;6.86;48.10
61324;BME280;47203;48.428;11.974;2023-01-28T09:35:21;97446.75;;;6.90;48.10
61324;BME280;47203;48.428;11.974;2023-01-28T09:37:26;97451.53;;;6.93;48.00
61324;BME280;47203;48.428;11.974;2023-01-28T09:39:33;97459.16;;;6.95;48.02
61324;BME280;47203;48.428;11.974;2023-01-28T09:41:45;97459.16;;;6.95;47.90
61324;BME280;47203;48.428;11.974;2023-01-28T09:44:21;97452.13;;;6.95;48.27
61324;BME280;47203;48.428;11.974;2023-01-28T09:46:32;97451.47;;;7.00;48.22
61324;BME280;47203;48.428;11.974;2023-01-28T09:48:39;97453.63;;;7.03;47.94
61324;BME280;47203;48.428;11.974;2023-01-28T09:50:48;97457.63;;;7.06;47.99
61324;BME280;47203;48.428;11.974;2023-01-28T09:52:56;97452.75;;;7.09;48.17
61324;BME280;47203;48.428;11.974;2023-01-28T09:55:14;97455.72;;;7.13;48.24
61324;BME280;47203;48.428;11.974;2023-01-28T09:57:22;97459.03;;;7.20;48.09
61324;BME280;47203;48.428;11.974;2023-01-28T09:59:27;97447.09;;;7.24;48.09
61324;BME280;47203;48.428;11.974;2023-01-28T10:01:38;97449.28;;;7.27;48.15
61324;BME280;47203;48.428;11.974;2023-01-28T10:03:52;97451.22;;;7.32;48.34
61324;BME280;47203;48.428;11.974;2023-01-28T10:06:07;97450.31;;;7.38;48.26
61324;BME280;47203;48.428;11.974;2023-01-28T10:08:25;97440.31;;;7.47;48.49
61324;BME280;47203;48.428;11.974;2023-01-28T10:10:43;97444.19;;;7.56;48.44
61324;BME280;47203;48.428;11.974;2023-01-28T10:18:03;97433.72;;;7.80;48.32
61324;BME280;47203;48.428;11.974;2023-01-28T10:20:21;97433.28;;;7.83;48.25
61324;BME280;47203;48.428;11.974;2023-01-28T10:22:31;97438.84;;;7.86;47.83
61324;BME280;47203;48.428;11.974;2023-01-28T10:24:40;97429.72;;;7.89;47.89
61324;BME280;47203;48.428;11.974;2023-01-28T10:26:52;97433.50;;;7.93;47.81
61324;BME280;47203;48.428;11.974;2023-01-28T10:29:02;97434.63;;;7.97;47.89
61324;BME280;47203;48.428;11.974;2023-01-28T10:31:11;97429.72;;;8.01;47.82
61324;BME280;47203;48.428;11.974;2023-01-28T10:33:21;97433.94;;;8.02;47.59
61324;BME280;47203;48.428;11.974;2023-01-28T10:35:27;97437.34;;;8.02;47.62
61324;BME280;47203;48.428;11.974;2023-01-28T10:37:34;97435.50;;;8.03;47.55
61324;BME280;47203;48.428;11.974;2023-01-28T10:39:40;97440.56;;;8.04;47.57
61324;BME280;47203;48.428;11.974;2023-01-28T10:41:45;97434.84;;;8.08;47.57
61324;BME280;47203;48.428;11.974;2023-01-28T10:44:01;97435.41;;;8.10;47.66
61324;BME280;47203;48.428;11.974;2023-01-28T10:46:09;97445.44;;;8.13;47.71
61324;BME280;47203;48.428;11.974;2023-01-28T10:48:21;97444.41;;;8.14;47.57
61324;BME280;47203;48.428;11.974;2023-01-28T10:50:28;97443.16;;;8.16;47.51
61324;BME280;47203;48.428;11.974;2023-01-28T10:52:33;97434.00;;;8.19;47.36
61324;BME280;47203;48.428;11.974;2023-01-28T10:54:38;97439.50;;;8.17;47.24
61324;BME280;47203;48.428;11.974;2023-01-28T10:56:43;97439.50;;;8.17;47.51
61324;BME280;47203;48.428;11.974;2023-01-28T10:58:56;97443.38;;;8.15;47.40
61324;BME280;47203;48.428;11.974;2023-01-28T11:01:06;97448.63;;;8.15;47.56
61324;BME280;47203;48.428;11.974;2023-01-28T11:03:17;97440.53;;;8.16;47.24
61324;BME280;47203;48.428;11.974;2023-01-28T11:05:25;97443.16;;;8.16;47.42
61324;BME280;47203;48.428;11.974;2023-01-28T11:07:31;97447.34;;;8.17;47.09
61324;BME280;47203;48.428;11.974;2023-01-28T11:09:37;97449.75;;;8.19;47.15
61324;BME280;47203;48.428;11.974;2023-01-28T11:11:41;97442.94;;;8.18;46.92
61324;BME280;47203;48.428;11.974;2023-01-28T11:13:49;97439.72;;;8.16;47.16
61324;BME280;47203;48.428;11.974;2023-01-28T11:15:59;97439.16;;;8.14;47.12
61324;BME280;47203;48.428;11.974;2023-01-28T11:18:16;97437.00;;;8.11;47.03
61324;BME280;47203;48.428;11.974;2023-01-28T11:20:23;97437.78;;;8.11;46.78
61324;BME280;47203;48.428;11.974;2023-01-28T11:22:32;97436.41;;;8.09;46.99
61324;BME280;47203;48.428;11.974;2023-01-28T11:24:41;97432.00;;;8.09;46.90
61324;BME280;47203;48.428;11.974;2023-01-28T11:26:48;97442.47;;;8.09;47.04
61324;BME280;47203;48.428;11.974;2023-01-28T11:28:54;97434.63;;;8.09;46.91